sensor_id;sensor_type;location;lat;lon;timestamp;P1;durP1;ratioP1;P2;durP2;ratioP2
40122;SDS011;25832;45.490;4.912;2024-03-23T00:54:44;8.32;;;4.60;;
40122;SDS011;25832;45.490;4.912;2024-03-23T00:57:10;9.50;;;4.43;;
40122;SDS011;25832;45.490;4.912;2024-03-23T00:59:36;7.22;;;4.18;;
40122;SDS011;25832;45.490;4.912;2024-03-23T01:02:01;7.07;;;3.90;;
40122;SDS011;25832;45.490;4.912;2024-03-23T01:04:27;5.88;;;3.70;;
40122;SDS011;25832;45.490;4.912;2024-03-23T01:06:52;10.65;;;4.28;;
40122;SDS011;25832;45.490;4.912;2024-03-23T01:09:18;8.07;;;4.60;;
40122;SDS011;25832;45.490;4.912;2024-03-23T01:11:44;10.88;;;5.28;;
40122;SDS011;25832;45.490;4.912;2024-03-23T01:14:09;10.20;;;4.53;;
40122;SDS011;25832;45.490;4.912;2024-03-23T01:16:35;10.35;;;4.07;;
40122;SDS011;25832;45.490;4.912;2024-03-23T01:19:00;9.27;;;4.45;;
40122;SDS011;25832;45.490;4.912;2024-03-23T01:21:26;8.48;;;4.75;;
40122;SDS011;25832;45.490;4.912;2024-03-23T01:23:52;6.55;;;4.35;;
40122;SDS011;25832;45.490;4.912;2024-03-23T01:26:17;9.65;;;4.50;;
40122;SDS011;25832;45.490;4.912;2024-03-23T01:28:43;9.90;;;4.90;;
40122;SDS011;25832;45.490;4.912;2024-03-23T01:31:08;8.65;;;4.22;;
40122;SDS011;25832;45.490;4.912;2024-03-23T01:33:35;13.43;;;5.20;;
40122;SDS011;25832;45.490;4.912;2024-03-23T01:36:00;11.07;;;4.78;;
40122;SDS011;25832;45.490;4.912;2024-03-23T01:38:26;7.80;;;4.07;;
40122;SDS011;25832;45.490;4.912;2024-03-23T01:40:56;10.93;;;4.43;;
40122;SDS011;25832;45.490;4.912;2024-03-23T01:43:24;7.90;;;4.78;;
40122;SDS011;25832;45.490;4.912;2024-03-23T01:45:50;7.15;;;4.38;;
40122;SDS011;25832;45.490;4.912;2024-03-23T01:48:18;8.63;;;4.72;;
40122;SDS011;25832;45.490;4.912;2024-03-23T01:50:45;13.30;;;5.43;;
40122;SDS011;25832;45.490;4.912;2024-03-23T01:53:11;7.22;;;3.65;;
40122;SDS011;25832;45.490;4.912;2024-03-23T01:55:40;9.20;;;4.82;;
40122;SDS011;25832;45.490;4.912;2024-03-23T01:58:06;9.63;;;4.35;;
40122;SDS011;25832;45.490;4.912;2024-03-23T02:00:32;8.23;;;4.63;;
40122;SDS011;25832;45.490;4.912;2024-03-23T02:02:57;7.93;;;4.78;;
40122;SDS011;25832;45.490;4.912;2024-03-23T02:05:23;8.30;;;4.13;;
40122;SDS011;25832;45.490;4.912;2024-03-23T02:07:49;12.20;;;4.90;;
40122;SDS011;25832;45.490;4.912;2024-03-23T02:10:15;12.52;;;4.90;;
40122;SDS011;25832;45.490;4.912;2024-03-23T02:12:41;11.52;;;4.60;;
40122;SDS011;25832;45.490;4.912;2024-03-23T02:15:07;11.45;;;4.85;;
40122;SDS011;25832;45.490;4.912;2024-03-23T02:17:35;8.25;;;4.80;;
40122;SDS011;25832;45.490;4.912;2024-03-23T02:20:02;13.15;;;4.95;;
40122;SDS011;25832;45.490;4.912;2024-03-23T02:22:36;19.15;;;5.80;;
40122;SDS011;25832;45.490;4.912;2024-03-23T02:25:03;11.68;;;5.22;;
40122;SDS011;25832;45.490;4.912;2024-03-23T02:27:30;9.95;;;4.57;;
40122;SDS011;25832;45.490;4.912;2024-03-23T02:29:55;10.23;;;4.50;;
40122;SDS011;25832;45.490;4.912;2024-03-23T02:32:21;12.65;;;5.25;;
40122;SDS011;25832;45.490;4.912;2024-03-23T02:34:47;12.73;;;5.50;;
40122;SDS011;25832;45.490;4.912;2024-03-23T02:37:12;9.70;;;4.20;;
40122;SDS011;25832;45.490;4.912;2024-03-23T02:39:38;13.05;;;5.75;;
40122;SDS011;25832;45.490;4.912;2024-03-23T02:42:03;9.27;;;5.00;;
40122;SDS011;25832;45.490;4.912;2024-03-23T02:44:29;11.48;;;6.47;;
40122;SDS011;25832;45.490;4.912;2024-03-23T02:46:55;11.60;;;5.57;;
40122;SDS011;25832;45.490;4.912;2024-03-23T02:49:21;11.95;;;5.05;;
40122;SDS011;25832;45.490;4.912;2024-03-23T02:51:46;8.55;;;5.03;;
40122;SDS011;25832;45.490;4.912;2024-03-23T02:54:13;19.45;;;5.47;;
40122;SDS011;25832;45.490;4.912;2024-03-23T02:56:39;10.68;;;5.18;;
40122;SDS011;25832;45.490;4.912;2024-03-23T02:59:04;12.52;;;5.38;;
40122;SDS011;25832;45.490;4.912;2024-03-23T03:01:30;15.23;;;6.00;;
40122;SDS011;25832;45.490;4.912;2024-03-23T03:03:56;9.88;;;5.00;;
40122;SDS011;25832;45.490;4.912;2024-03-23T03:06:25;9.15;;;5.15;;
40122;SDS011;25832;45.490;4.912;2024-03-23T03:08:51;10.88;;;5.30;;
40122;SDS011;25832;45.490;4.912;2024-03-23T03:11:16;9.63;;;5.25;;
40122;SDS011;25832;45.490;4.912;2024-03-23T03:13:42;10.07;;;4.95;;
40122;SDS011;25832;45.490;4.912;2024-03-23T03:16:08;11.35;;;4.88;;
40122;SDS011;25832;45.490;4.912;2024-03-23T03:18:37;15.32;;;5.90;;
40122;SDS011;25832;45.490;4.912;2024-03-23T03:21:04;13.38;;;5.00;;
40122;SDS011;25832;45.490;4.912;2024-03-23T03:23:31;13.55;;;5.85;;
40122;SDS011;25832;45.490;4.912;2024-03-23T03:25:57;17.67;;;5.75;;
40122;SDS011;25832;45.490;4.912;2024-03-23T03:28:23;13.32;;;6.68;;
40122;SDS011;25832;45.490;4.912;2024-03-23T03:30:49;9.30;;;5.53;;
40122;SDS011;25832;45.490;4.912;2024-03-23T03:33:14;11.52;;;5.65;;
40122;SDS011;25832;45.490;4.912;2024-03-23T03:35:40;11.40;;;5.03;;
40122;SDS011;25832;45.490;4.912;2024-03-23T03:38:06;14.93;;;6.10;;
40122;SDS011;25832;45.490;4.912;2024-03-23T03:40:31;11.27;;;5.00;;
40122;SDS011;25832;45.490;4.912;2024-03-23T03:42:57;12.85;;;6.00;;
40122;SDS011;25832;45.490;4.912;2024-03-23T03:45:22;9.80;;;5.65;;
40122;SDS011;25832;45.490;4.912;2024-03-23T03:47:48;13.38;;;5.85;;
40122;SDS011;25832;45.490;4.912;2024-03-23T03:50:14;11.25;;;5.28;;
40122;SDS011;25832;45.490;4.912;2024-03-23T03:52:39;12.05;;;5.47;;
40122;SDS011;25832;45.490;4.912;2024-03-23T03:55:06;14.43;;;5.85;;
40122;SDS011;25832;45.490;4.912;2024-03-23T03:57:38;11.18;;;6.20;;
40122;SDS011;25832;45.490;4.912;2024-03-23T04:00:03;14.77;;;6.55;;
40122;SDS011;25832;45.490;4.912;2024-03-23T04:02:30;12.50;;;5.88;;
40122;SDS011;25832;45.490;4.912;2024-03-23T04:04:55;13.63;;;4.75;;
40122;SDS011;25832;45.490;4.912;2024-03-23T04:07:21;10.13;;;6.20;;
40122;SDS011;25832;45.490;4.912;2024-03-23T04:09:47;12.07;;;6.03;;
40122;SDS011;25832;45.490;4.912;2024-03-23T04:12:14;13.55;;;6.15;;
40122;SDS011;25832;45.490;4.912;2024-03-23T04:14:40;14.45;;;6.78;;
40122;SDS011;25832;45.490;4.912;2024-03-23T04:17:06;13.93;;;6.47;;
40122;SDS011;25832;45.490;4.912;2024-03-23T04:19:31;10.95;;;6.47;;
40122;SDS011;25832;45.490;4.912;2024-03-23T04:21:57;13.93;;;6.75;;
40122;SDS011;25832;45.490;4.912;2024-03-23T04:24:23;15.10;;;7.07;;
40122;SDS011;25832;45.490;4.912;2024-03-23T04:26:49;14.57;;;6.43;;
40122;SDS011;25832;45.490;4.912;2024-03-23T04:29:15;12.15;;;7.00;;
40122;SDS011;25832;45.490;4.912;2024-03-23T04:31:41;13.80;;;6.53;;
40122;SDS011;25832;45.490;4.912;2024-03-23T04:34:06;14.05;;;6.63;;
40122;SDS011;25832;45.490;4.912;2024-03-23T04:36:32;13.82;;;5.45;;
40122;SDS011;25832;45.490;4.912;2024-03-23T04:38:58;11.55;;;5.63;;
40122;SDS011;25832;45.490;4.912;2024-03-23T04:41:24;12.90;;;6.07;;
40122;SDS011;25832;45.490;4.912;2024-03-23T04:43:50;10.50;;;5.75;;
40122;SDS011;25832;45.490;4.912;2024-03-23T04:46:16;9.52;;;5.57;;
40122;SDS011;25832;45.490;4.912;2024-03-23T04:48:42;10.82;;;5.72;;
40122;SDS011;25832;45.490;4.912;2024-03-23T04:51:09;13.90;;;5.88;;
40122;SDS011;25832;45.490;4.912;2024-03-23T04:53:37;9.80;;;5.63;;
40122;SDS011;25832;45.490;4.912;2024-03-23T04:56:03;12.65;;;6.70;;
40122;SDS011;25832;45.490;4.912;2024-03-23T04:58:29;13.98;;;6.85;;
40122;SDS011;25832;45.490;4.912;2024-03-23T05:00:58;8.77;;;5.90;;
40122;SDS011;25832;45.490;4.912;2024-03-23T05:03:23;11.20;;;6.38;;
40122;SDS011;25832;45.490;4.912;2024-03-23T05:05:49;12.85;;;5.88;;
40122;SDS011;25832;45.490;4.912;2024-03-23T05:08:15;18.08;;;7.18;;
40122;SDS011;25832;45.490;4.912;2024-03-23T05:10:41;15.45;;;6.88;;
40122;SDS011;25832;45.490;4.912;2024-03-23T05:13:07;13.15;;;6.10;;
40122;SDS011;25832;45.490;4.912;2024-03-23T05:15:33;14.23;;;6.00;;
40122;SDS011;25832;45.490;4.912;2024-03-23T05:17:59;13.25;;;6.00;;
40122;SDS011;25832;45.490;4.912;2024-03-23T05:20:24;9.88;;;6.50;;
40122;SDS011;25832;45.490;4.912;2024-03-23T05:22:50;8.32;;;5.13;;
40122;SDS011;25832;45.490;4.912;2024-03-23T05:25:15;17.67;;;8.30;;
40122;SDS011;25832;45.490;4.912;2024-03-23T05:27:41;11.77;;;5.57;;
40122;SDS011;25832;45.490;4.912;2024-03-23T05:30:07;10.73;;;4.60;;
40122;SDS011;25832;45.490;4.912;2024-03-23T05:32:34;8.38;;;5.20;;
40122;SDS011;25832;45.490;4.912;2024-03-23T05:34:59;8.30;;;4.60;;
40122;SDS011;25832;45.490;4.912;2024-03-23T05:37:25;9.07;;;5.10;;
40122;SDS011;25832;45.490;4.912;2024-03-23T05:39:51;8.40;;;4.57;;
40122;SDS011;25832;45.490;4.912;2024-03-23T05:42:17;10.07;;;4.90;;
40122;SDS011;25832;45.490;4.912;2024-03-23T05:44:46;10.35;;;5.63;;
40122;SDS011;25832;45.490;4.912;2024-03-23T05:47:12;14.02;;;5.10;;
40122;SDS011;25832;45.490;4.912;2024-03-23T05:49:39;9.82;;;4.72;;
40122;SDS011;25832;45.490;4.912;2024-03-23T05:52:07;12.07;;;4.72;;
40122;SDS011;25832;45.490;4.912;2024-03-23T05:54:36;7.65;;;4.90;;
40122;SDS011;25832;45.490;4.912;2024-03-23T05:57:02;9.35;;;5.28;;
40122;SDS011;25832;45.490;4.912;2024-03-23T05:59:28;9.00;;;3.95;;
40122;SDS011;25832;45.490;4.912;2024-03-23T06:01:54;7.53;;;4.13;;
40122;SDS011;25832;45.490;4.912;2024-03-23T06:04:19;7.70;;;4.38;;
40122;SDS011;25832;45.490;4.912;2024-03-23T06:06:46;7.72;;;3.95;;
40122;SDS011;25832;45.490;4.912;2024-03-23T06:09:12;7.50;;;4.43;;
40122;SDS011;25832;45.490;4.912;2024-03-23T06:11:37;5.03;;;3.33;;
40122;SDS011;25832;45.490;4.912;2024-03-23T06:14:03;6.78;;;3.72;;
40122;SDS011;25832;45.490;4.912;2024-03-23T06:16:29;7.90;;;4.07;;
40122;SDS011;25832;45.490;4.912;2024-03-23T06:18:55;6.47;;;4.13;;
40122;SDS011;25832;45.490;4.912;2024-03-23T06:21:21;5.30;;;3.15;;
40122;SDS011;25832;45.490;4.912;2024-03-23T06:23:50;7.20;;;3.72;;
40122;SDS011;25832;45.490;4.912;2024-03-23T06:26:17;8.88;;;3.78;;
40122;SDS011;25832;45.490;4.912;2024-03-23T06:28:44;5.43;;;3.20;;
40122;SDS011;25832;45.490;4.912;2024-03-23T06:31:10;5.53;;;3.45;;
40122;SDS011;25832;45.490;4.912;2024-03-23T06:33:36;5.28;;;2.97;;
40122;SDS011;25832;45.490;4.912;2024-03-23T06:36:01;13.00;;;3.95;;
40122;SDS011;25832;45.490;4.912;2024-03-23T06:38:28;5.63;;;2.60;;
40122;SDS011;25832;45.490;4.912;2024-03-23T06:40:53;5.35;;;3.17;;
40122;SDS011;25832;45.490;4.912;2024-03-23T06:43:19;4.65;;;2.90;;
40122;SDS011;25832;45.490;4.912;2024-03-23T06:45:52;8.60;;;2.85;;
40122;SDS011;25832;45.490;4.912;2024-03-23T06:48:21;6.10;;;3.05;;
40122;SDS011;25832;45.490;4.912;2024-03-23T06:50:47;7.28;;;3.80;;
40122;SDS011;25832;45.490;4.912;2024-03-23T06:53:13;5.78;;;3.10;;
40122;SDS011;25832;45.490;4.912;2024-03-23T06:55:39;6.97;;;3.60;;
40122;SDS011;25832;45.490;4.912;2024-03-23T06:58:06;5.32;;;2.55;;
40122;SDS011;25832;45.490;4.912;2024-03-23T07:00:32;5.85;;;2.92;;
40122;SDS011;25832;45.490;4.912;2024-03-23T07:02:58;5.88;;;2.00;;
40122;SDS011;25832;45.490;4.912;2024-03-23T07:05:24;3.45;;;1.98;;
40122;SDS011;25832;45.490;4.912;2024-03-23T07:07:50;2.60;;;1.75;;
40122;SDS011;25832;45.490;4.912;2024-03-23T07:10:15;2.67;;;1.38;;
40122;SDS011;25832;45.490;4.912;2024-03-23T07:12:41;2.00;;;1.10;;
40122;SDS011;25832;45.490;4.912;2024-03-23T07:15:07;2.83;;;1.38;;
40122;SDS011;25832;45.490;4.912;2024-03-23T07:17:34;1.50;;;1.15;;
40122;SDS011;25832;45.490;4.912;2024-03-23T07:20:00;3.28;;;0.73;;
40122;SDS011;25832;45.490;4.912;2024-03-23T07:22:28;2.17;;;0.68;;
40122;SDS011;25832;45.490;4.912;2024-03-23T07:25:00;2.50;;;1.15;;
40122;SDS011;25832;45.490;4.912;2024-03-23T07:27:26;1.45;;;0.43;;
40122;SDS011;25832;45.490;4.912;2024-03-23T07:29:52;0.68;;;0.57;;
40122;SDS011;25832;45.490;4.912;2024-03-23T07:32:17;0.85;;;0.60;;
40122;SDS011;25832;45.490;4.912;2024-03-23T07:34:43;2.67;;;0.80;;
40122;SDS011;25832;45.490;4.912;2024-03-23T07:37:11;2.08;;;0.50;;
40122;SDS011;25832;45.490;4.912;2024-03-23T07:39:37;3.00;;;0.80;;
40122;SDS011;25832;45.490;4.912;2024-03-23T07:42:04;2.42;;;0.60;;
40122;SDS011;25832;45.490;4.912;2024-03-23T07:44:30;1.80;;;0.63;;
40122;SDS011;25832;45.490;4.912;2024-03-23T07:46:56;1.23;;;0.95;;
40122;SDS011;25832;45.490;4.912;2024-03-23T07:49:22;2.38;;;0.65;;
40122;SDS011;25832;45.490;4.912;2024-03-23T07:51:47;2.28;;;0.68;;
40122;SDS011;25832;45.490;4.912;2024-03-23T07:54:13;0.73;;;0.73;;
40122;SDS011;25832;45.490;4.912;2024-03-23T07:56:38;3.28;;;1.33;;
40122;SDS011;25832;45.490;4.912;2024-03-23T07:59:04;6.85;;;1.50;;
40122;SDS011;25832;45.490;4.912;2024-03-23T08:01:30;1.70;;;1.10;;
40122;SDS011;25832;45.490;4.912;2024-03-23T08:03:55;3.10;;;1.13;;
40122;SDS011;25832;45.490;4.912;2024-03-23T08:06:21;2.08;;;1.05;;
40122;SDS011;25832;45.490;4.912;2024-03-23T08:08:48;4.13;;;1.00;;
40122;SDS011;25832;45.490;4.912;2024-03-23T08:11:18;15.10;;;1.17;;
40122;SDS011;25832;45.490;4.912;2024-03-23T08:13:44;3.80;;;0.98;;
40122;SDS011;25832;45.490;4.912;2024-03-23T08:16:10;2.75;;;1.00;;
40122;SDS011;25832;45.490;4.912;2024-03-23T08:18:37;10.43;;;1.90;;
40122;SDS011;25832;45.490;4.912;2024-03-23T08:21:03;2.72;;;1.38;;
40122;SDS011;25832;45.490;4.912;2024-03-23T08:23:31;8.40;;;0.80;;
40122;SDS011;25832;45.490;4.912;2024-03-23T08:25:59;6.53;;;1.17;;
40122;SDS011;25832;45.490;4.912;2024-03-23T08:28:25;8.98;;;1.10;;
40122;SDS011;25832;45.490;4.912;2024-03-23T08:30:52;3.20;;;1.08;;
40122;SDS011;25832;45.490;4.912;2024-03-23T08:33:18;4.13;;;1.17;;
40122;SDS011;25832;45.490;4.912;2024-03-23T08:35:54;13.05;;;1.10;;
40122;SDS011;25832;45.490;4.912;2024-03-23T08:38:21;6.18;;;1.15;;
40122;SDS011;25832;45.490;4.912;2024-03-23T08:40:56;3.78;;;1.02;;
40122;SDS011;25832;45.490;4.912;2024-03-23T08:43:33;6.32;;;1.08;;
40122;SDS011;25832;45.490;4.912;2024-03-23T08:48:40;4.78;;;1.40;;
40122;SDS011;25832;45.490;4.912;2024-03-23T08:51:08;5.03;;;1.27;;
40122;SDS011;25832;45.490;4.912;2024-03-23T08:53:35;5.53;;;1.20;;
40122;SDS011;25832;45.490;4.912;2024-03-23T08:56:02;1.58;;;0.70;;
40122;SDS011;25832;45.490;4.912;2024-03-23T08:58:29;8.25;;;1.58;;
40122;SDS011;25832;45.490;4.912;2024-03-23T09:00:56;2.45;;;0.82;;
40122;SDS011;25832;45.490;4.912;2024-03-23T09:03:22;2.10;;;1.00;;
40122;SDS011;25832;45.490;4.912;2024-03-23T09:05:49;3.05;;;0.77;;
40122;SDS011;25832;45.490;4.912;2024-03-23T09:08:15;2.95;;;1.00;;
40122;SDS011;25832;45.490;4.912;2024-03-23T09:10:41;1.70;;;1.00;;
40122;SDS011;25832;45.490;4.912;2024-03-23T09:13:07;2.13;;;0.70;;
40122;SDS011;25832;45.490;4.912;2024-03-23T09:15:37;6.65;;;1.25;;
40122;SDS011;25832;45.490;4.912;2024-03-23T09:18:10;4.80;;;1.02;;
40122;SDS011;25832;45.490;4.912;2024-03-23T09:20:36;5.80;;;1.35;;
40122;SDS011;25832;45.490;4.912;2024-03-23T09:23:01;3.05;;;0.90;;
40122;SDS011;25832;45.490;4.912;2024-03-23T09:25:27;2.83;;;0.90;;
40122;SDS011;25832;45.490;4.912;2024-03-23T09:27:53;3.95;;;1.50;;
40122;SDS011;25832;45.490;4.912;2024-03-23T09:30:18;5.22;;;1.35;;
40122;SDS011;25832;45.490;4.912;2024-03-23T09:32:44;17.85;;;2.35;;
40122;SDS011;25832;45.490;4.912;2024-03-23T09:35:10;2.28;;;0.63;;
40122;SDS011;25832;45.490;4.912;2024-03-23T09:37:37;9.93;;;1.48;;
40122;SDS011;25832;45.490;4.912;2024-03-23T09:40:05;1.50;;;0.50;;
40122;SDS011;25832;45.490;4.912;2024-03-23T09:42:34;3.40;;;0.70;;
40122;SDS011;25832;45.490;4.912;2024-03-23T09:44:59;5.35;;;1.20;;
40122;SDS011;25832;45.490;4.912;2024-03-23T09:47:26;4.80;;;0.90;;
40122;SDS011;25832;45.490;4.912;2024-03-23T09:49:52;4.22;;;0.90;;
40122;SDS011;25832;45.490;4.912;2024-03-23T09:52:18;1.20;;;0.60;;
40122;SDS011;25832;45.490;4.912;2024-03-23T09:54:44;3.03;;;0.57;;
40122;SDS011;25832;45.490;4.912;2024-03-23T09:57:10;3.50;;;0.50;;
40122;SDS011;25832;45.490;4.912;2024-03-23T09:59:35;3.70;;;0.88;;
40122;SDS011;25832;45.490;4.912;2024-03-23T10:02:01;7.60;;;1.48;;
40122;SDS011;25832;45.490;4.912;2024-03-23T10:04:36;7.55;;;0.68;;
40122;SDS011;25832;45.490;4.912;2024-03-23T10:07:13;2.63;;;0.60;;
40122;SDS011;25832;45.490;4.912;2024-03-23T10:09:40;6.22;;;0.95;;
40122;SDS011;25832;45.490;4.912;2024-03-23T10:12:09;7.70;;;1.10;;
40122;SDS011;25832;45.490;4.912;2024-03-23T10:14:38;7.00;;;1.05;;
40122;SDS011;25832;45.490;4.912;2024-03-23T10:17:15;3.60;;;0.90;;
40122;SDS011;25832;45.490;4.912;2024-03-23T10:19:48;1.10;;;0.65;;
40122;SDS011;25832;45.490;4.912;2024-03-23T10:22:17;3.22;;;0.63;;
40122;SDS011;25832;45.490;4.912;2024-03-23T10:24:44;2.15;;;0.60;;
40122;SDS011;25832;45.490;4.912;2024-03-23T10:27:14;2.25;;;1.27;;
40122;SDS011;25832;45.490;4.912;2024-03-23T10:29:41;5.57;;;1.02;;
40122;SDS011;25832;45.490;4.912;2024-03-23T10:32:07;4.68;;;0.50;;
40122;SDS011;25832;45.490;4.912;2024-03-23T10:34:37;9.55;;;0.70;;
40122;SDS011;25832;45.490;4.912;2024-03-23T10:37:04;1.05;;;0.50;;
40122;SDS011;25832;45.490;4.912;2024-03-23T10:39:34;1.55;;;0.80;;
40122;SDS011;25832;45.490;4.912;2024-03-23T10:42:02;3.25;;;1.73;;
40122;SDS011;25832;45.490;4.912;2024-03-23T10:44:29;1.02;;;0.47;;
40122;SDS011;25832;45.490;4.912;2024-03-23T10:46:56;1.63;;;0.90;;
40122;SDS011;25832;45.490;4.912;2024-03-23T10:49:34;8.15;;;1.67;;
40122;SDS011;25832;45.490;4.912;2024-03-23T10:52:01;2.45;;;0.73;;
40122;SDS011;25832;45.490;4.912;2024-03-23T10:54:29;6.32;;;1.52;;
40122;SDS011;25832;45.490;4.912;2024-03-23T10:59:34;1.88;;;0.50;;
40122;SDS011;25832;45.490;4.912;2024-03-23T11:02:02;5.70;;;0.82;;
40122;SDS011;25832;45.490;4.912;2024-03-23T11:04:38;4.22;;;0.90;;
40122;SDS011;25832;45.490;4.912;2024-03-23T11:07:27;4.35;;;0.93;;
40122;SDS011;25832;45.490;4.912;2024-03-23T11:09:49;3.30;;;0.68;;
40122;SDS011;25832;45.490;4.912;2024-03-23T11:12:18;1.42;;;0.50;;
40122;SDS011;25832;45.490;4.912;2024-03-23T11:17:35;1.17;;;0.75;;
40122;SDS011;25832;45.490;4.912;2024-03-23T11:20:05;1.40;;;0.40;;
40122;SDS011;25832;45.490;4.912;2024-03-23T11:25:03;1.25;;;0.60;;
40122;SDS011;25832;45.490;4.912;2024-03-23T11:27:37;1.88;;;0.32;;
40122;SDS011;25832;45.490;4.912;2024-03-23T11:30:12;2.38;;;0.70;;
40122;SDS011;25832;45.490;4.912;2024-03-23T11:32:42;4.57;;;0.93;;
40122;SDS011;25832;45.490;4.912;2024-03-23T11:35:09;1.27;;;0.68;;
40122;SDS011;25832;45.490;4.912;2024-03-23T11:37:36;4.25;;;0.75;;
40122;SDS011;25832;45.490;4.912;2024-03-23T11:40:23;2.17;;;0.43;;
40122;SDS011;25832;45.490;4.912;2024-03-23T11:42:54;1.67;;;0.50;;
40122;SDS011;25832;45.490;4.912;2024-03-23T11:45:21;2.72;;;0.65;;
40122;SDS011;25832;45.490;4.912;2024-03-23T11:47:46;1.60;;;0.98;;
40122;SDS011;25832;45.490;4.912;2024-03-23T11:50:18;2.75;;;0.57;;
40122;SDS011;25832;45.490;4.912;2024-03-23T11:52:45;2.28;;;0.85;;
40122;SDS011;25832;45.490;4.912;2024-03-23T11:55:10;1.38;;;0.65;;
40122;SDS011;25832;45.490;4.912;2024-03-23T11:57:36;2.97;;;0.55;;
40122;SDS011;25832;45.490;4.912;2024-03-23T12:00:02;1.95;;;0.65;;
40122;SDS011;25832;45.490;4.912;2024-03-23T12:02:44;3.78;;;0.80;;
40122;SDS011;25832;45.490;4.912;2024-03-23T12:05:14;0.60;;;0.60;;
40122;SDS011;25832;45.490;4.912;2024-03-23T12:07:40;1.55;;;0.70;;
40122;SDS011;25832;45.490;4.912;2024-03-23T12:10:06;1.83;;;0.40;;
40122;SDS011;25832;45.490;4.912;2024-03-23T12:12:32;1.48;;;0.43;;
40122;SDS011;25832;45.490;4.912;2024-03-23T12:15:02;2.08;;;0.68;;
40122;SDS011;25832;45.490;4.912;2024-03-23T12:17:30;2.50;;;0.98;;
40122;SDS011;25832;45.490;4.912;2024-03-23T12:19:56;6.15;;;1.10;;
40122;SDS011;25832;45.490;4.912;2024-03-23T12:22:22;1.45;;;0.57;;
40122;SDS011;25832;45.490;4.912;2024-03-23T12:24:49;3.28;;;0.43;;
40122;SDS011;25832;45.490;4.912;2024-03-23T12:27:15;3.65;;;0.68;;
40122;SDS011;25832;45.490;4.912;2024-03-23T12:29:41;4.75;;;0.80;;
40122;SDS011;25832;45.490;4.912;2024-03-23T12:32:12;3.40;;;0.68;;
40122;SDS011;25832;45.490;4.912;2024-03-23T12:34:38;0.75;;;0.60;;
40122;SDS011;25832;45.490;4.912;2024-03-23T12:37:04;2.60;;;0.50;;
40122;SDS011;25832;45.490;4.912;2024-03-23T12:39:31;1.85;;;0.68;;
40122;SDS011;25832;45.490;4.912;2024-03-23T12:41:56;3.13;;;0.70;;
40122;SDS011;25832;45.490;4.912;2024-03-23T12:44:22;1.80;;;1.02;;
40122;SDS011;25832;45.490;4.912;2024-03-23T12:46:48;0.93;;;0.50;;
40122;SDS011;25832;45.490;4.912;2024-03-23T12:49:13;1.75;;;0.50;;
40122;SDS011;25832;45.490;4.912;2024-03-23T12:51:39;1.25;;;0.60;;
40122;SDS011;25832;45.490;4.912;2024-03-23T12:54:11;1.08;;;0.43;;
40122;SDS011;25832;45.490;4.912;2024-03-23T12:56:36;3.38;;;1.33;;
40122;SDS011;25832;45.490;4.912;2024-03-23T12:59:02;3.28;;;0.80;;
40122;SDS011;25832;45.490;4.912;2024-03-23T13:01:28;0.50;;;0.47;;
40122;SDS011;25832;45.490;4.912;2024-03-23T13:03:53;2.67;;;0.57;;
40122;SDS011;25832;45.490;4.912;2024-03-23T13:06:19;0.45;;;0.40;;
40122;SDS011;25832;45.490;4.912;2024-03-23T13:08:45;1.27;;;0.70;;
40122;SDS011;25832;45.490;4.912;2024-03-23T13:11:11;1.48;;;0.90;;
40122;SDS011;25832;45.490;4.912;2024-03-23T13:13:38;0.75;;;0.55;;
40122;SDS011;25832;45.490;4.912;2024-03-23T13:16:04;5.70;;;1.08;;
40122;SDS011;25832;45.490;4.912;2024-03-23T13:18:30;2.45;;;0.65;;
40122;SDS011;25832;45.490;4.912;2024-03-23T13:20:56;3.80;;;1.13;;
40122;SDS011;25832;45.490;4.912;2024-03-23T13:23:22;3.08;;;0.57;;
40122;SDS011;25832;45.490;4.912;2024-03-23T13:25:51;2.58;;;0.60;;
40122;SDS011;25832;45.490;4.912;2024-03-23T13:28:18;1.42;;;0.60;;
40122;SDS011;25832;45.490;4.912;2024-03-23T13:30:54;1.65;;;0.57;;
40122;SDS011;25832;45.490;4.912;2024-03-23T13:33:20;1.35;;;0.32;;
40122;SDS011;25832;45.490;4.912;2024-03-23T13:38:15;2.35;;;0.63;;
40122;SDS011;25832;45.490;4.912;2024-03-23T13:40:48;1.85;;;0.65;;
40122;SDS011;25832;45.490;4.912;2024-03-23T13:45:48;2.03;;;0.88;;
40122;SDS011;25832;45.490;4.912;2024-03-23T13:48:17;4.13;;;0.83;;
40122;SDS011;25832;45.490;4.912;2024-03-23T13:50:44;1.48;;;0.60;;
40122;SDS011;25832;45.490;4.912;2024-03-23T13:53:10;3.78;;;0.52;;
40122;SDS011;25832;45.490;4.912;2024-03-23T13:55:35;1.08;;;0.55;;
40122;SDS011;25832;45.490;4.912;2024-03-23T13:58:01;8.23;;;1.08;;
40122;SDS011;25832;45.490;4.912;2024-03-23T14:00:27;0.90;;;0.60;;
40122;SDS011;25832;45.490;4.912;2024-03-23T14:02:52;8.55;;;1.60;;
40122;SDS011;25832;45.490;4.912;2024-03-23T14:05:18;0.38;;;0.30;;
40122;SDS011;25832;45.490;4.912;2024-03-23T14:07:44;2.25;;;0.47;;
40122;SDS011;25832;45.490;4.912;2024-03-23T14:10:09;2.78;;;0.52;;
40122;SDS011;25832;45.490;4.912;2024-03-23T14:12:36;0.55;;;0.45;;
40122;SDS011;25832;45.490;4.912;2024-03-23T14:15:05;0.93;;;0.57;;
40122;SDS011;25832;45.490;4.912;2024-03-23T14:17:31;3.75;;;0.63;;
40122;SDS011;25832;45.490;4.912;2024-03-23T14:19:57;2.28;;;0.40;;
40122;SDS011;25832;45.490;4.912;2024-03-23T14:22:26;1.40;;;0.70;;
40122;SDS011;25832;45.490;4.912;2024-03-23T14:24:54;1.70;;;0.73;;
40122;SDS011;25832;45.490;4.912;2024-03-23T14:27:20;3.53;;;1.10;;
40122;SDS011;25832;45.490;4.912;2024-03-23T14:29:46;3.58;;;0.93;;
40122;SDS011;25832;45.490;4.912;2024-03-23T14:32:12;2.20;;;0.50;;
40122;SDS011;25832;45.490;4.912;2024-03-23T14:34:38;1.58;;;0.68;;
40122;SDS011;25832;45.490;4.912;2024-03-23T14:37:04;1.00;;;0.40;;
40122;SDS011;25832;45.490;4.912;2024-03-23T14:39:31;3.65;;;1.02;;
40122;SDS011;25832;45.490;4.912;2024-03-23T14:41:59;3.00;;;0.60;;
40122;SDS011;25832;45.490;4.912;2024-03-23T14:44:26;2.50;;;0.70;;
40122;SDS011;25832;45.490;4.912;2024-03-23T14:46:52;1.45;;;0.60;;
40122;SDS011;25832;45.490;4.912;2024-03-23T14:49:18;3.55;;;0.90;;
40122;SDS011;25832;45.490;4.912;2024-03-23T14:51:44;2.65;;;0.47;;
40122;SDS011;25832;45.490;4.912;2024-03-23T14:54:10;1.98;;;0.60;;
40122;SDS011;25832;45.490;4.912;2024-03-23T14:56:36;1.73;;;0.68;;
40122;SDS011;25832;45.490;4.912;2024-03-23T14:59:03;1.23;;;0.60;;
40122;SDS011;25832;45.490;4.912;2024-03-23T15:01:28;3.05;;;0.50;;
40122;SDS011;25832;45.490;4.912;2024-03-23T15:03:54;3.92;;;0.70;;
40122;SDS011;25832;45.490;4.912;2024-03-23T15:06:19;0.95;;;0.45;;
40122;SDS011;25832;45.490;4.912;2024-03-23T15:08:45;2.60;;;1.10;;
40122;SDS011;25832;45.490;4.912;2024-03-23T15:11:11;1.55;;;0.57;;
40122;SDS011;25832;45.490;4.912;2024-03-23T15:13:37;2.03;;;0.93;;
40122;SDS011;25832;45.490;4.912;2024-03-23T15:16:03;0.55;;;0.43;;
40122;SDS011;25832;45.490;4.912;2024-03-23T15:18:30;2.38;;;0.60;;
40122;SDS011;25832;45.490;4.912;2024-03-23T15:21:00;1.48;;;0.60;;
40122;SDS011;25832;45.490;4.912;2024-03-23T15:23:28;6.45;;;2.22;;
40122;SDS011;25832;45.490;4.912;2024-03-23T15:25:54;5.93;;;1.05;;
40122;SDS011;25832;45.490;4.912;2024-03-23T15:28:23;1.08;;;0.40;;
40122;SDS011;25832;45.490;4.912;2024-03-23T15:30:51;2.67;;;0.70;;
40122;SDS011;25832;45.490;4.912;2024-03-23T15:33:17;6.00;;;1.63;;
40122;SDS011;25832;45.490;4.912;2024-03-23T15:35:42;8.98;;;2.90;;
40122;SDS011;25832;45.490;4.912;2024-03-23T15:38:08;3.70;;;1.20;;
40122;SDS011;25832;45.490;4.912;2024-03-23T15:40:34;1.85;;;0.63;;
40122;SDS011;25832;45.490;4.912;2024-03-23T15:43:00;3.70;;;0.93;;
40122;SDS011;25832;45.490;4.912;2024-03-23T15:45:26;3.15;;;0.73;;
40122;SDS011;25832;45.490;4.912;2024-03-23T15:47:52;3.40;;;0.57;;
40122;SDS011;25832;45.490;4.912;2024-03-23T15:50:17;1.55;;;0.55;;
40122;SDS011;25832;45.490;4.912;2024-03-23T15:52:43;0.65;;;0.65;;